createdAt,value
2019-05-02T00:01:57.534Z,78.23
2019-05-02T00:04:26.951Z,75.67
2019-05-02T00:07:05.622Z,76.93
2019-05-02T00:09:36.300Z,73.97
2019-05-02T00:12:09.786Z,74.43
2019-05-02T00:14:39.487Z,80.67
2019-05-02T00:17:09.753Z,77.13
2019-05-02T00:19:39.257Z,79.77
2019-05-02T00:22:12.278Z,85.13
2019-05-02T00:24:41.685Z,77.67
2019-05-02T00:27:11.047Z,87.07
2019-05-02T00:29:40.552Z,86.10
2019-05-02T00:32:10.016Z,82.27
2019-05-02T00:34:39.300Z,80.73
2019-05-02T00:37:08.903Z,86.87
2019-05-02T00:39:38.481Z,83.07
2019-05-02T00:42:12.874Z,80.07
2019-05-02T00:44:42.042Z,85.37
2019-05-02T00:47:19.824Z,79.73
2019-05-02T00:49:49.275Z,84.87
2019-05-02T00:52:18.733Z,78.40
2019-05-02T00:54:48.273Z,85.03
2019-05-02T00:57:19.895Z,85.57
2019-05-02T00:59:48.769Z,85.93
2019-05-02T01:02:26.965Z,85.97
2019-05-02T01:04:59.272Z,83.90
2019-05-02T01:07:27.320Z,86.27
2019-05-02T01:09:56.893Z,80.67
2019-05-02T01:12:26.956Z,84.73
2019-05-02T01:14:56.584Z,85.30
2019-05-02T01:17:30.877Z,85.37
2019-05-02T01:19:57.714Z,90.40
2019-05-02T01:22:27.452Z,84.67
2019-05-02T01:24:56.936Z,84.47
2019-05-02T01:27:36.005Z,88.73
2019-05-02T01:30:20.809Z,82.27
2019-05-02T01:33:21.277Z,82.30
2019-05-02T01:36:06.385Z,80.57
2019-05-02T01:38:40.206Z,83.03
2019-05-02T01:41:09.568Z,85.80
2019-05-02T01:43:39.116Z,83.67
2019-05-02T01:46:08.444Z,80.90
2019-05-02T01:48:40.294Z,90.67
2019-05-02T01:51:11.878Z,87.23
2019-05-02T01:53:40.695Z,84.63
2019-05-02T01:56:10.271Z,89.13
2019-05-02T01:58:39.878Z,88.93
2019-05-02T02:01:09.385Z,85.93
2019-05-02T02:03:40.620Z,90.77
2019-05-02T02:06:10.303Z,89.47
2019-05-02T02:08:40.019Z,90.13
2019-05-02T02:11:09.589Z,93.40
2019-05-02T02:13:39.077Z,90.57
2019-05-02T02:16:08.625Z,97.97
2019-05-02T02:18:43.206Z,98.63
2019-05-02T02:21:37.981Z,97.77
2019-05-02T02:24:21.272Z,103.90
2019-05-02T02:26:49.953Z,93.83
2019-05-02T02:29:19.452Z,94.57
2019-05-02T02:31:49.102Z,94.80
2019-05-02T02:34:21.578Z,94.33
2019-05-02T02:36:49.697Z,96.60
2019-05-02T02:39:19.402Z,100.33
2019-05-02T02:41:52.028Z,95.87
2019-05-02T02:44:42.098Z,96.60
2019-05-02T02:47:18.292Z,102.77
2019-05-02T02:49:42.736Z,106.00
2019-05-02T02:52:12.321Z,110.57
2019-05-02T02:54:43.464Z,105.03
2019-05-02T02:57:25.727Z,104.67
2019-05-02T02:59:44.475Z,105.40
2019-05-02T03:02:14.086Z,104.77
2019-05-02T03:04:45.965Z,100.50
2019-05-02T03:07:24.058Z,98.97
2019-05-02T03:09:45.941Z,101.87
2019-05-02T03:12:36.264Z,96.00
2019-05-02T03:15:06.164Z,98.63
2019-05-02T03:17:35.897Z,105.67
2019-05-02T03:20:05.882Z,106.27
2019-05-02T03:22:41.958Z,97.97
2019-05-02T03:25:06.790Z,106.17
2019-05-02T03:27:37.705Z,99.97
2019-05-02T03:30:07.769Z,105.00
2019-05-02T03:32:37.252Z,106.70
2019-05-02T03:35:06.771Z,101.17
2019-05-02T03:37:36.608Z,110.40
2019-05-02T03:40:06.291Z,99.00
2019-05-02T03:42:43.935Z,105.83
2019-05-02T03:45:07.076Z,106.23
2019-05-02T03:47:43.316Z,102.60
2019-05-02T03:50:09.766Z,108.97
2019-05-02T03:52:43.818Z,110.30
2019-05-02T03:55:11.174Z,115.37
2019-05-02T03:57:42.101Z,106.33
2019-05-02T04:00:20.145Z,107.53
2019-05-02T04:02:44.308Z,110.53
2019-05-02T04:05:14.552Z,108.10
2019-05-02T04:07:44.081Z,107.13
2019-05-02T04:10:19.736Z,108.70
2019-05-02T04:12:53.286Z,108.83
2019-05-02T04:15:19.272Z,114.03
2019-05-02T04:17:49.404Z,107.23
2019-05-02T04:20:18.805Z,106.17
2019-05-02T04:22:49.007Z,107.50
2019-05-02T04:25:19.777Z,105.53
2019-05-02T04:27:50.395Z,109.00
2019-05-02T04:30:20.001Z,109.17
2019-05-02T04:32:55.286Z,109.37
2019-05-02T04:35:20.754Z,105.00
2019-05-02T04:37:50.314Z,105.30
2019-05-02T04:40:19.756Z,109.37
2019-05-02T04:42:51.260Z,112.43
2019-05-02T04:45:26.541Z,108.17
2019-05-02T04:47:59.010Z,104.37
2019-05-02T04:50:25.080Z,104.17
2019-05-02T04:52:54.236Z,105.20
2019-05-02T04:55:29.965Z,105.57
2019-05-02T04:57:55.209Z,101.93
2019-05-02T05:00:28.885Z,104.07
2019-05-02T05:02:58.735Z,100.50
2019-05-02T05:05:31.069Z,99.10
2019-05-02T05:07:59.481Z,99.47
2019-05-02T05:10:40.359Z,99.93
2019-05-02T05:13:00.419Z,99.57
2019-05-02T05:15:38.381Z,98.20
2019-05-02T05:18:04.399Z,94.87
2019-05-02T05:20:32.585Z,96.10
2019-05-02T05:23:02.359Z,99.77
2019-05-02T05:25:39.555Z,100.27
2019-05-02T05:28:09.220Z,101.50
2019-05-02T05:30:45.278Z,98.30
2019-05-02T05:33:10.400Z,107.17
2019-05-02T05:35:43.192Z,90.93
2019-05-02T05:38:11.075Z,91.27
2019-05-02T05:40:40.675Z,100.97
2019-05-02T05:43:14.579Z,89.30
2019-05-02T05:45:51.208Z,99.80
2019-05-02T05:48:13.831Z,96.00
2019-05-02T05:50:43.461Z,95.30
2019-05-02T05:53:17.301Z,83.43
2019-05-02T05:55:44.834Z,89.27
2019-05-02T05:58:15.752Z,82.27
2019-05-02T06:00:45.853Z,84.07
2019-05-02T06:03:17.945Z,81.00
2019-05-02T06:05:47.773Z,82.57
2019-05-02T06:08:18.359Z,80.03
2019-05-02T06:10:48.733Z,86.70
2019-05-02T06:13:18.624Z,85.67
2019-05-02T06:16:01.593Z,79.47
2019-05-02T06:18:22.609Z,81.83
2019-05-02T06:20:52.208Z,75.30
2019-05-02T06:23:21.723Z,74.60
2019-05-02T06:25:51.600Z,74.30
2019-05-02T06:28:21.026Z,72.07
2019-05-02T06:30:50.571Z,71.23
2019-05-02T06:33:20.311Z,67.93
2019-05-02T06:35:51.771Z,71.07
2019-05-02T06:38:22.931Z,117.27
2019-05-02T06:40:52.380Z,151.97
2019-05-02T06:43:22.156Z,72.20
2019-05-02T06:45:51.758Z,68.37
2019-05-02T06:48:21.486Z,70.17
2019-05-02T06:50:51.254Z,67.07
2019-05-02T06:53:20.792Z,64.60
2019-05-02T06:55:50.712Z,63.67
2019-05-02T06:58:20.471Z,61.00
2019-05-02T07:00:58.160Z,61.33
2019-05-02T07:03:21.686Z,59.17
2019-05-02T07:05:51.282Z,63.80
2019-05-02T07:08:20.997Z,59.07
2019-05-02T07:10:51.069Z,55.33
2019-05-02T07:13:20.570Z,58.33
2019-05-02T07:15:57.139Z,57.13
2019-05-02T07:18:28.196Z,77.27
2019-05-02T07:20:57.891Z,56.93
2019-05-02T07:23:27.669Z,56.27
2019-05-02T07:26:00.117Z,53.23
2019-05-02T07:28:28.632Z,55.20
2019-05-02T07:30:58.321Z,54.40
2019-05-02T07:33:32.451Z,51.97
2019-05-02T07:36:00.117Z,53.07
2019-05-02T07:38:30.196Z,53.60
2019-05-02T07:41:00.082Z,52.37
2019-05-02T07:43:30.012Z,53.17
2019-05-02T07:45:59.747Z,52.50
2019-05-02T07:48:29.303Z,82.97
2019-05-02T07:50:58.890Z,52.73
2019-05-02T07:53:28.571Z,51.77
2019-05-02T07:55:58.004Z,51.10
2019-05-02T07:58:27.505Z,51.47
2019-05-02T08:00:56.917Z,52.20
2019-05-02T08:03:29.355Z,50.00
2019-05-02T08:05:58.604Z,50.13
2019-05-02T08:08:29.803Z,51.97
2019-05-02T08:11:02.896Z,56.47
2019-05-02T08:13:31.525Z,54.00
2019-05-02T08:16:01.323Z,55.53
2019-05-02T08:18:31.767Z,52.77
2019-05-02T08:21:01.186Z,53.70
2019-05-02T08:23:30.811Z,53.77
2019-05-02T08:26:00.439Z,53.53
2019-05-02T08:28:35.609Z,54.03
2019-05-02T08:31:05.421Z,54.93
2019-05-02T08:33:35.952Z,53.33
2019-05-02T08:36:05.603Z,53.70
2019-05-02T08:38:35.290Z,52.87
2019-05-02T08:41:04.958Z,51.70
2019-05-02T08:43:34.498Z,51.50
2019-05-02T08:46:04.093Z,51.87
2019-05-02T08:48:36.458Z,53.43
2019-05-02T08:51:04.960Z,50.33
2019-05-02T08:53:34.734Z,51.10
2019-05-02T08:56:04.341Z,48.50
2019-05-02T08:58:34.281Z,50.63
2019-05-02T09:01:03.977Z,48.23
2019-05-02T09:03:38.854Z,49.33
2019-05-02T09:06:06.225Z,42.43
2019-05-02T09:08:35.922Z,44.73
2019-05-02T09:11:05.808Z,41.17
2019-05-02T09:13:35.276Z,38.90
2019-05-02T09:16:06.058Z,36.50
2019-05-02T09:18:39.591Z,31.07
2019-05-02T09:21:06.876Z,30.90
2019-05-02T09:23:37.234Z,27.97
2019-05-02T09:26:07.026Z,25.97
2019-05-02T09:28:36.672Z,24.40
2019-05-02T09:31:06.776Z,24.40
2019-05-02T09:33:36.878Z,25.80
2019-05-02T09:36:07.812Z,25.67
2019-05-02T09:38:37.443Z,24.90
2019-05-02T09:41:16.182Z,24.30
2019-05-02T09:43:39.259Z,26.27
2019-05-02T09:46:12.995Z,28.60
2019-05-02T09:48:40.154Z,28.50
2019-05-02T09:51:12.865Z,28.50
2019-05-02T09:53:43.015Z,29.33
2019-05-02T09:56:12.683Z,31.83
2019-05-02T09:58:43.859Z,29.20
2019-05-02T10:01:42.410Z,34.70
2019-05-02T10:04:12.124Z,32.37
2019-05-02T10:06:42.927Z,33.93
2019-05-02T10:09:12.881Z,36.10
2019-05-02T10:11:43.133Z,37.60
2019-05-02T10:14:13.311Z,37.70
2019-05-02T10:16:42.955Z,39.00
2019-05-02T10:19:13.515Z,41.83
2019-05-02T10:21:47.083Z,41.37
2019-05-02T10:24:14.145Z,41.00
2019-05-02T10:26:43.537Z,43.73
2019-05-02T10:29:13.023Z,43.20
2019-05-02T10:31:42.721Z,43.33
2019-05-02T10:34:16.349Z,43.23
2019-05-02T10:36:45.472Z,43.80
2019-05-02T10:39:15.832Z,44.10
2019-05-02T10:41:45.643Z,46.07
2019-05-02T10:44:15.141Z,48.57
2019-05-02T10:46:54.976Z,48.13
2019-05-02T10:49:32.276Z,48.17
2019-05-02T10:52:02.627Z,48.23
2019-05-02T10:54:33.815Z,46.07
2019-05-02T10:57:04.240Z,47.20
2019-05-02T10:59:33.691Z,48.57
2019-05-02T11:02:22.231Z,50.73
2019-05-02T11:04:55.044Z,53.83
2019-05-02T11:07:26.403Z,47.40
2019-05-02T11:09:57.322Z,47.83
2019-05-02T11:12:41.892Z,45.53
2019-05-02T11:15:22.375Z,44.73
2019-05-02T11:17:52.874Z,44.37
2019-05-02T11:20:22.497Z,45.47
2019-05-02T11:22:54.388Z,52.83
2019-05-02T11:25:23.131Z,48.50
2019-05-02T11:27:52.722Z,52.00
2019-05-02T11:30:26.381Z,69.03
2019-05-02T11:32:53.216Z,58.30
2019-05-02T11:35:23.475Z,59.17
2019-05-02T11:37:53.174Z,63.63
2019-05-02T11:40:22.801Z,59.23
2019-05-02T11:42:52.324Z,53.23
2019-05-02T11:45:22.693Z,55.87
2019-05-02T11:47:55.660Z,56.93
2019-05-02T11:50:26.635Z,55.10
2019-05-02T11:52:54.352Z,58.43
2019-05-02T11:55:28.712Z,54.97
2019-05-02T11:57:54.688Z,56.00
2019-05-02T12:00:24.431Z,56.00
2019-05-02T12:03:14.619Z,57.87
2019-05-02T12:05:44.284Z,53.00
2019-05-02T12:08:13.862Z,57.07
2019-05-02T12:10:43.259Z,54.53
2019-05-02T12:13:16.021Z,53.63
2019-05-02T12:15:44.411Z,52.80
2019-05-02T12:18:13.915Z,53.70
2019-05-02T12:20:43.684Z,52.30
2019-05-02T12:23:13.208Z,52.03
2019-05-02T12:25:42.634Z,52.77
2019-05-02T12:28:12.197Z,49.67
2019-05-02T12:30:42.069Z,50.07
2019-05-02T12:33:12.425Z,48.93
2019-05-02T12:35:43.227Z,51.40
2019-05-02T12:38:12.943Z,49.03
2019-05-02T12:40:42.480Z,49.13
2019-05-02T12:43:12.178Z,50.13
2019-05-02T12:45:42.188Z,51.37
2019-05-02T12:48:12.970Z,50.87
2019-05-02T12:50:43.063Z,50.57
2019-05-02T12:53:13.046Z,48.50
2019-05-02T12:55:42.532Z,50.00
2019-05-02T12:58:12.561Z,48.00
2019-05-02T13:00:43.094Z,48.50
2019-05-02T13:03:31.710Z,46.97
2019-05-02T13:06:02.977Z,44.07
2019-05-02T13:08:35.048Z,39.03
2019-05-02T13:11:15.249Z,38.17
2019-05-02T13:13:44.738Z,37.40
2019-05-02T13:16:14.374Z,35.93
2019-05-02T13:18:44.112Z,34.20
2019-05-02T13:21:17.056Z,34.63
2019-05-02T13:23:51.754Z,32.07
2019-05-02T13:26:26.563Z,28.60
2019-05-02T13:28:52.177Z,28.13
2019-05-02T13:31:33.872Z,25.07
2019-05-02T13:34:14.892Z,28.70
2019-05-02T13:36:45.535Z,28.23
2019-05-02T13:39:32.623Z,28.60
2019-05-02T13:42:02.163Z,25.87
2019-05-02T13:44:33.679Z,24.53
2019-05-02T13:47:03.172Z,21.93
2019-05-02T13:49:32.622Z,21.00
2019-05-02T13:52:02.542Z,21.87
2019-05-02T13:54:33.123Z,20.47
2019-05-02T13:57:03.216Z,20.27
2019-05-02T13:59:33.765Z,21.00
2019-05-02T14:02:05.012Z,20.83
2019-05-02T14:04:35.607Z,19.30
2019-05-02T14:07:07.697Z,20.30
2019-05-02T14:09:58.113Z,19.57
2019-05-02T14:12:48.664Z,19.03
2019-05-02T14:15:22.145Z,16.40
2019-05-02T14:17:52.530Z,16.63
2019-05-02T14:20:22.556Z,16.00
2019-05-02T14:22:52.771Z,17.13
2019-05-02T14:25:22.620Z,16.70
2019-05-02T14:27:55.515Z,13.50
2019-05-02T14:30:36.260Z,14.07
2019-05-02T14:32:59.119Z,13.03
2019-05-02T14:35:32.458Z,13.47
2019-05-02T14:38:23.624Z,13.57
2019-05-02T14:41:09.428Z,11.90
2019-05-02T14:43:53.290Z,11.83
2019-05-02T14:46:28.750Z,9.60
2019-05-02T14:48:55.646Z,9.93
2019-05-02T14:51:27.912Z,9.50
2019-05-02T14:54:05.840Z,11.03
2019-05-02T14:56:47.923Z,9.87
2019-05-02T14:59:19.763Z,9.57
2019-05-02T15:01:52.837Z,11.43
2019-05-02T15:04:22.725Z,11.60
2019-05-02T15:06:52.630Z,11.53
2019-05-02T15:09:26.821Z,11.97
2019-05-02T15:12:02.417Z,11.47
2019-05-02T15:14:36.017Z,10.93
2019-05-02T15:17:06.017Z,9.60
2019-05-02T15:19:35.409Z,10.28
2019-05-02T15:22:04.950Z,9.68
2019-05-02T15:24:37.642Z,10.38
2019-05-02T15:27:12.079Z,8.83
2019-05-02T15:29:36.654Z,8.60
2019-05-02T15:32:25.461Z,8.88
2019-05-02T15:35:28.709Z,11.48
2019-05-02T15:38:02.466Z,9.13
2019-05-02T15:43:04.595Z,10.35
2019-05-02T15:45:36.542Z,9.53
2019-05-02T15:48:03.434Z,10.45
2019-05-02T15:50:32.951Z,17.50
2019-05-02T15:53:10.161Z,9.53
2019-05-02T15:55:42.112Z,8.65
2019-05-02T15:58:22.671Z,9.13
2019-05-02T16:00:56.594Z,10.35
2019-05-02T16:03:45.478Z,10.80
2019-05-02T16:06:16.338Z,9.87
2019-05-02T16:08:47.381Z,11.97
2019-05-02T16:11:17.990Z,13.70
2019-05-02T16:13:52.734Z,21.87
2019-05-02T16:16:21.958Z,13.60
2019-05-02T16:18:52.551Z,13.00
2019-05-02T16:21:30.606Z,13.33
2019-05-02T16:24:17.454Z,14.43
2019-05-02T16:26:47.060Z,14.03
2019-05-02T16:29:23.421Z,13.63
2019-05-02T16:31:54.920Z,12.67
2019-05-02T16:34:27.416Z,13.77
2019-05-02T16:37:13.490Z,14.77
2019-05-02T16:39:44.395Z,15.20
2019-05-02T16:42:12.452Z,14.37
2019-05-02T16:44:42.971Z,13.13
2019-05-02T16:47:13.996Z,15.53
2019-05-02T16:49:47.821Z,16.33
2019-05-02T16:52:16.077Z,16.03
2019-05-02T16:54:45.629Z,16.23
2019-05-02T16:57:17.559Z,16.13
2019-05-02T16:59:46.474Z,15.13
2019-05-02T17:02:16.108Z,16.13
2019-05-02T17:04:45.702Z,16.00
2019-05-02T17:07:23.307Z,16.07
2019-05-02T17:10:08.491Z,15.70
2019-05-02T17:12:36.887Z,16.17
2019-05-02T17:15:26.286Z,14.70
2019-05-02T17:17:56.064Z,14.43
2019-05-02T17:20:25.801Z,13.67
2019-05-02T17:23:01.956Z,13.07
2019-05-02T17:25:26.632Z,12.73
2019-05-02T17:28:03.990Z,14.13
2019-05-02T17:55:44.251Z,13.30
2019-05-02T17:58:14.149Z,14.53
2019-05-02T18:00:47.388Z,15.53
2019-05-02T18:03:18.194Z,15.27
2019-05-02T18:05:47.931Z,15.40
2019-05-02T18:08:17.594Z,15.03
2019-05-02T18:10:50.691Z,16.00
2019-05-02T18:13:18.454Z,14.53
2019-05-02T18:15:47.951Z,14.90
2019-05-02T18:18:17.392Z,19.63
2019-05-02T18:20:47.881Z,17.90
2019-05-02T18:23:18.653Z,15.37
2019-05-02T18:25:48.477Z,14.40
2019-05-02T18:28:24.545Z,14.60
2019-05-02T18:30:50.127Z,15.13
2019-05-02T18:33:19.560Z,14.30
2019-05-02T18:35:49.412Z,16.23
2019-05-02T18:38:20.921Z,15.37
2019-05-02T18:40:52.457Z,15.93
2019-05-02T18:43:22.272Z,16.30
2019-05-02T18:45:51.901Z,14.37
2019-05-02T18:48:22.007Z,15.17
2019-05-02T18:50:52.677Z,14.93
2019-05-02T18:53:24.096Z,15.83
2019-05-02T18:55:56.777Z,14.47
2019-05-02T18:58:25.084Z,16.97
2019-05-02T19:00:55.068Z,16.67
2019-05-02T19:03:24.506Z,17.00
2019-05-02T19:05:57.159Z,16.03
2019-05-02T19:08:31.222Z,18.13
2019-05-02T19:11:06.066Z,18.30
2019-05-02T19:13:32.169Z,18.37
2019-05-02T19:15:59.721Z,19.27
2019-05-02T19:18:29.342Z,19.53
2019-05-02T19:21:03.750Z,20.23
2019-05-02T19:23:34.329Z,19.50
2019-05-02T19:26:10.269Z,19.93
2019-05-02T19:28:53.125Z,21.20
2019-05-02T19:31:24.594Z,20.67
2019-05-02T19:33:54.171Z,20.57
2019-05-02T19:36:27.466Z,21.73
2019-05-02T19:38:57.360Z,21.50
2019-05-02T19:41:26.056Z,21.70
2019-05-02T19:43:55.460Z,22.17
2019-05-02T19:46:34.683Z,21.43
2019-05-02T19:48:56.038Z,21.80
2019-05-02T19:51:28.102Z,23.87
2019-05-02T19:53:59.599Z,22.27
2019-05-02T19:56:33.331Z,22.10
2019-05-02T19:58:59.208Z,21.97
2019-05-02T20:01:28.621Z,21.80
2019-05-02T20:04:02.261Z,24.13
2019-05-02T20:06:29.118Z,23.63
2019-05-02T20:08:59.196Z,23.93
2019-05-02T20:11:32.830Z,22.73
2019-05-02T20:14:05.504Z,24.27
2019-05-02T20:16:52.799Z,23.90
2019-05-02T20:19:26.819Z,21.87
2019-05-02T20:22:04.768Z,22.83
2019-05-02T20:24:58.354Z,21.83
2019-05-02T20:27:28.249Z,24.83
2019-05-02T20:29:57.453Z,23.53
2019-05-02T20:32:27.083Z,23.40
2019-05-02T20:34:56.557Z,22.63
2019-05-02T20:37:26.274Z,25.40
2019-05-02T20:39:55.866Z,24.87
2019-05-02T20:42:25.574Z,26.63
2019-05-02T20:44:55.613Z,25.67
2019-05-02T20:47:26.263Z,28.47
2019-05-02T20:49:55.943Z,28.27
2019-05-02T20:52:25.617Z,27.73
2019-05-02T20:54:55.377Z,26.93
2019-05-02T20:57:24.871Z,28.73
2019-05-02T20:59:54.415Z,30.30
2019-05-02T21:02:23.970Z,25.40
2019-05-02T21:04:53.442Z,26.27
2019-05-02T21:07:42.415Z,26.43
2019-05-02T21:10:28.126Z,25.03
2019-05-02T21:12:57.645Z,26.10
2019-05-02T21:15:27.210Z,25.27
2019-05-02T21:17:56.821Z,26.63
2019-05-02T21:20:26.474Z,26.73
2019-05-02T21:22:56.382Z,29.07
2019-05-02T21:25:25.953Z,29.07
2019-05-02T21:27:55.437Z,29.73
2019-05-02T21:30:26.650Z,29.93
2019-05-02T21:32:56.283Z,28.33
2019-05-02T21:35:25.905Z,28.00
2019-05-02T21:37:55.417Z,27.53
2019-05-02T21:40:25.915Z,25.13
2019-05-02T21:42:55.537Z,25.63
2019-05-02T21:45:25.145Z,25.97
2019-05-02T21:47:54.827Z,25.67
2019-05-02T21:50:38.998Z,25.33
2019-05-02T21:53:23.827Z,24.03
2019-05-02T21:56:02.808Z,24.57
2019-05-02T21:58:32.629Z,24.07
2019-05-02T22:01:22.166Z,22.83
2019-05-02T22:03:52.154Z,22.10
2019-05-02T22:06:22.660Z,22.70
2019-05-02T22:08:52.388Z,22.80
2019-05-02T22:11:22.574Z,22.67
2019-05-02T22:13:52.169Z,23.23
2019-05-02T22:16:21.942Z,22.30
2019-05-02T22:18:52.184Z,22.60
2019-05-02T22:21:22.773Z,20.77
2019-05-02T22:23:52.336Z,20.50
2019-05-02T22:26:22.865Z,19.97
2019-05-02T22:28:53.759Z,18.73
2019-05-02T22:31:23.405Z,18.77
2019-05-02T22:33:53.019Z,18.03
2019-05-02T22:36:22.730Z,19.40
2019-05-02T22:39:14.261Z,16.87
2019-05-02T22:41:43.922Z,16.80
2019-05-02T22:44:13.443Z,17.57
2019-05-02T22:46:44.513Z,17.13
2019-05-02T22:49:15.092Z,17.60
2019-05-02T22:51:45.093Z,18.83
2019-05-02T22:54:26.714Z,16.07
2019-05-02T22:56:45.913Z,15.20
2019-05-02T22:59:15.476Z,16.07
2019-05-02T23:01:45.320Z,16.23
2019-05-02T23:04:14.811Z,15.17
2019-05-02T23:06:44.404Z,15.63
2019-05-02T23:09:13.947Z,15.57
2019-05-02T23:11:43.522Z,14.83
2019-05-02T23:14:13.049Z,15.67
2019-05-02T23:16:43.063Z,15.83
2019-05-02T23:19:12.786Z,16.40
2019-05-02T23:21:42.544Z,16.33
2019-05-02T23:24:18.173Z,17.77
2019-05-02T23:26:54.144Z,17.13
2019-05-02T23:29:23.649Z,15.27
2019-05-02T23:31:54.085Z,15.83
2019-05-02T23:34:23.715Z,14.83
2019-05-02T23:36:53.321Z,13.80
2019-05-02T23:39:22.805Z,12.97
2019-05-02T23:41:52.551Z,13.87
2019-05-02T23:44:22.882Z,11.77
2019-05-02T23:46:52.382Z,10.93
2019-05-02T23:49:22.128Z,11.60
2019-05-02T23:51:51.915Z,10.33
2019-05-02T23:54:22.059Z,11.43
2019-05-02T23:56:51.670Z,11.37
2019-05-02T23:59:22.343Z,9.93
